Time;durP1;ratioP1;P1;durP2;ratioP2;P2;SDS_P1;SDS_P2;PMS_P1;PMS_P2;Temp;Humidity;BMP_temperature;BMP_pressure;BME280_temperature;BME280_humidity;BME280_pressure;Samples;Min_cycle;Max_cycle;Signal;HPM_P1;HPM_P2
2022/08/03 00:00:58;;;;;;;;;;;;;;;18.45;100.00;100000.18;1646263;85;21117;-76
2022/08/03 00:03:24;;;;;;;8.47;6.00;;;;;;;18.47;100.00;100005.60;1650144;85;20145;-80
2022/08/03 00:05:50;;;;;;;;;;;;;;;18.42;100.00;100005.55;1647450;85;21103;-82
2022/08/03 00:08:16;;;;;;;7.22;6.53;;;;;;;18.42;100.00;100004.20;1650041;85;20429;-79
2022/08/03 00:10:44;;;;;;;7.67;6.95;;;;;;;18.41;100.00;100001.20;1647652;85;21155;-80
2022/08/03 00:13:12;;;;;;;8.83;6.10;;;;;;;18.40;100.00;99999.59;1647854;86;21080;-78
2022/08/03 00:15:41;;;;;;;7.42;6.67;;;;;;;18.40;100.00;99992.00;1641159;86;21047;-81
2022/08/03 00:18:08;;;;;;;7.83;7.05;;;;;;;18.39;100.00;99983.10;1650266;86;21040;-80
2022/08/03 00:20:35;;;;;;;6.90;6.33;;;;;;;18.39;100.00;99980.95;1641887;86;21027;-78
2022/08/03 00:23:01;;;;;;;6.47;6.10;;;;;;;18.36;100.00;99984.94;1634048;87;21562;-78
2022/08/03 00:25:27;;;;;;;6.87;6.37;;;;;;;18.40;100.00;99980.70;1614923;87;21069;-78
2022/08/03 00:27:53;;;;;;;6.42;5.92;;;;;;;18.43;100.00;99977.48;1617782;87;21018;-77
2022/08/03 00:30:19;;;;;;;;;;;;;;;18.48;100.00;99979.45;1618149;87;21191;-80
2022/08/03 00:32:45;;;;;;;6.23;5.83;;;;;;;18.44;100.00;99983.19;1617702;87;20165;-75
2022/08/03 00:35:12;;;;;;;6.45;5.95;;;;;;;18.37;100.00;99993.33;1628699;86;21528;-78
2022/08/03 00:37:38;;;;;;;7.00;6.42;;;;;;;18.36;100.00;99990.34;1629364;86;21515;-76
2022/08/03 00:40:06;;;;;;;7.28;6.37;;;;;;;18.37;100.00;99989.28;1618587;86;21071;-75
2022/08/03 00:42:32;;;;;;;6.42;5.87;;;;;;;18.39;100.00;99986.34;1632028;86;21079;-78
2022/08/03 00:44:59;;;;;;;;;;;;;;;18.41;100.00;99987.72;1647875;86;21543;-82
2022/08/03 00:47:25;;;;;;;6.73;6.33;;;;;;;18.40;100.00;99989.31;1626699;87;20109;-79
2022/08/03 00:49:51;;;;;;;;;;;;;;;18.34;100.00;99989.77;1624268;87;21137;-78
2022/08/03 00:52:17;;;;;;;8.20;6.28;;;;;;;18.38;100.00;99992.25;1627402;86;20154;-80
2022/08/03 00:54:43;;;;;;;;;;;;;;;18.36;100.00;99989.52;1629608;86;21031;-82
2022/08/03 00:57:09;;;;;;;6.78;5.55;;;;;;;18.37;100.00;99990.63;1605992;87;20167;-76
2022/08/03 00:59:37;;;;;;;7.17;6.28;;;;;;;18.31;100.00;99993.49;1665382;84;21006;-77
2022/08/03 01:02:03;;;;;;;7.03;5.70;;;;;;;18.29;100.00;99992.41;1642906;86;21316;-75
2022/08/03 01:04:29;;;;;;;6.55;5.15;;;;;;;18.27;100.00;99993.16;1684205;84;21040;-80
2022/08/03 01:07:11;;;;;;;6.72;6.17;;;;;;;18.28;100.00;99996.16;1683717;84;21109;-77
2022/08/03 01:10:11;;;;;;;6.70;5.95;;;;;;;18.31;100.00;99991.63;1678483;84;20995;-73
2022/08/03 01:13:07;;;;;;;6.53;6.10;;;;;;;18.36;100.00;99989.52;1677768;84;21059;-78
2022/08/03 01:16:09;;;;;;;6.53;5.92;;;;;;;18.36;100.00;99990.34;1679740;84;21494;-78
2022/08/03 01:18:46;;;;;;;6.78;6.10;;;;;;;18.45;100.00;99996.13;1682319;84;21007;-76
2022/08/03 01:21:30;;;;;;;8.93;5.95;;;;;;;18.51;100.00;99998.38;1682221;84;21051;-83
2022/08/03 01:24:36;;;;;;;6.83;5.97;;;;;;;18.50;100.00;100005.66;1643905;85;21109;-85
2022/08/03 01:27:08;;;;;;;6.30;5.70;;;;;;;18.47;100.00;100003.45;1685634;84;20983;-78
2022/08/03 01:29:59;;;;;;;6.03;5.53;;;;;;;18.45;100.00;99996.13;1674452;84;21084;-74
2022/08/03 01:32:49;;;;;;;6.92;6.17;;;;;;;18.43;100.00;99995.03;1672296;84;21507;-76
2022/08/03 01:35:41;;;;;;;6.30;5.90;;;;;;;18.36;100.00;99999.78;1636073;86;20983;-82
2022/08/03 01:38:21;;;;;;;5.95;5.20;;;;;;;18.31;100.00;99995.68;1562334;89;21090;-85
2022/08/03 01:40:50;;;;;;;5.70;5.40;;;;;;;18.32;100.00;99995.14;1607613;88;21137;-84
2022/08/03 01:43:20;;;;;;;5.40;5.17;;;;;;;18.33;100.00;100004.34;1649880;85;21137;-82
2022/08/03 01:45:48;;;;;;;6.00;5.53;;;;;;;18.33;100.00;100004.34;1637083;84;21177;-81
2022/08/03 01:48:18;;;;;;;8.10;6.08;;;;;;;18.34;100.00;100004.61;1633896;86;20996;-79
2022/08/03 01:50:45;;;;;;;5.47;5.17;;;;;;;18.29;100.00;100000.51;1633673;87;21039;-77
2022/08/03 01:53:14;;;;;;;6.65;6.03;;;;;;;18.26;100.00;100001.80;1634740;87;20984;-74
2022/08/03 01:55:45;;;;;;;5.15;4.80;;;;;;;18.26;100.00;99992.36;1642633;84;21022;-76
2022/08/03 01:58:16;;;;;;;6.62;5.17;;;;;;;18.29;100.00;99985.13;1670217;84;21042;-77
2022/08/03 02:00:44;;;;;;;5.97;5.47;;;;;;;18.32;100.00;99985.16;1667806;84;21070;-79
2022/08/03 02:03:12;;;;;;;14.98;5.53;;;;;;;18.32;100.00;99991.90;1675271;84;21070;-77
2022/08/03 02:05:40;;;;;;;6.05;5.65;;;;;;;18.30;100.00;99988.64;1684848;84;21015;-79
2022/08/03 02:08:10;;;;;;;7.35;5.50;;;;;;;18.28;100.00;99991.58;1683197;84;21114;-77
2022/08/03 02:10:40;;;;;;;5.78;5.37;;;;;;;18.28;100.00;99989.42;1680604;85;21050;-77
2022/08/03 02:13:09;;;;;;;6.47;5.53;;;;;;;18.27;100.00;99989.12;1649662;84;21054;-76
2022/08/03 02:15:38;;;;;;;8.05;6.15;;;;;;;18.28;100.00;99997.52;1644863;85;21020;-77
2022/08/03 02:18:09;;;;;;;5.62;5.15;;;;;;;18.29;100.00;100002.67;1640326;85;21193;-80
2022/08/03 02:20:38;;;;;;;8.10;5.72;;;;;;;18.28;100.00;99994.27;1639433;85;21099;-79
2022/08/03 02:23:06;;;;;;;7.55;5.67;;;;;;;18.24;100.00;100001.23;1646481;85;21020;-80
2022/08/03 02:25:37;;;;;;;10.55;6.55;;;;;;;18.20;100.00;99989.31;1651699;86;22325;-80
2022/08/03 02:28:09;;;;;;;7.45;6.37;;;;;;;18.22;100.00;99996.62;1645173;86;21173;-79
2022/08/03 02:30:38;;;;;;;5.75;5.30;;;;;;;18.20;100.00;100000.64;1653257;86;21046;-81
2022/08/03 02:33:10;;;;;;;7.00;6.47;;;;;;;18.17;100.00;100001.12;1655990;85;21555;-83
2022/08/03 02:35:39;;;;;;;7.80;5.80;;;;;;;18.12;100.00;99999.17;1650297;85;21043;-84
2022/08/03 02:38:09;;;;;;;8.50;5.50;;;;;;;18.12;100.00;100002.39;1649987;85;21014;-78
2022/08/03 02:40:35;;;;;;;6.37;5.28;;;;;;;18.08;100.00;100000.20;1648773;85;21031;-76
2022/08/03 02:43:09;;;;;;;7.45;6.85;;;;;;;18.04;100.00;100007.13;1648628;85;21541;-75
2022/08/03 02:45:41;;;;;;;7.90;6.95;;;;;;;18.01;100.00;100004.94;1671919;84;21097;-76
2022/08/03 02:48:11;;;;;;;6.40;5.80;;;;;;;18.01;100.00;100010.87;1684079;84;21050;-74
2022/08/03 02:50:39;;;;;;;7.58;5.97;;;;;;;17.94;100.00;100002.93;1683659;84;21050;-80
2022/08/03 02:53:07;;;;;;;6.45;5.95;;;;;;;17.95;100.00;100001.88;1642063;86;21146;-75
2022/08/03 02:55:34;;;;;;;8.05;6.10;;;;;;;17.92;100.00;99995.63;1638733;86;21089;-77
2022/08/03 02:58:03;;;;;;;7.53;6.12;;;;;;;17.93;100.00;100001.28;1631116;86;21091;-77
2022/08/03 03:00:32;;;;;;;5.40;5.05;;;;;;;17.95;100.00;100000.53;1631215;86;21615;-75
2022/08/03 03:03:00;;;;;;;9.38;6.25;;;;;;;18.03;100.00;100001.45;1625623;87;20983;-76
2022/08/03 03:05:27;;;;;;;6.58;5.58;;;;;;;18.10;100.00;99991.84;1632248;87;21112;-76
2022/08/03 03:07:56;;;;;;;6.80;6.25;;;;;;;18.17;100.00;99998.42;1630285;87;21089;-78
2022/08/03 03:10:25;;;;;;;6.53;5.75;;;;;;;18.17;100.00;99997.08;1630032;87;21094;-78
2022/08/03 03:12:55;;;;;;;6.90;5.90;;;;;;;18.14;100.00;100005.65;1623749;86;21132;-78
2022/08/03 03:15:23;;;;;;;5.70;5.25;;;;;;;18.09;100.00;100004.52;1631685;87;21060;-79
2022/08/03 03:17:52;;;;;;;5.42;5.03;;;;;;;18.11;100.00;100004.27;1630448;87;21111;-79
2022/08/03 03:20:20;;;;;;;5.33;4.87;;;;;;;18.16;100.00;100002.17;1615276;87;21056;-78
2022/08/03 03:22:51;;;;;;;5.87;5.30;;;;;;;18.19;100.00;100001.69;1667729;84;20975;-77
2022/08/03 03:25:19;;;;;;;7.58;5.50;;;;;;;18.22;100.00;100002.55;1670227;84;21050;-78
2022/08/03 03:27:47;;;;;;;6.12;5.50;;;;;;;18.25;100.00;100002.05;1669155;84;21003;-77
2022/08/03 03:30:14;;;;;;;8.13;5.87;;;;;;;18.25;100.00;100004.73;1668484;84;20964;-77
2022/08/03 03:32:41;;;;;;;6.97;5.47;;;;;;;18.26;100.00;100003.69;1667289;84;21011;-74
2022/08/03 03:35:08;;;;;;;5.58;5.17;;;;;;;18.27;100.00;100006.15;1667184;84;21152;-78
2022/08/03 03:37:35;;;;;;;7.53;5.10;;;;;;;18.31;100.00;100014.56;1668962;84;21059;-80
2022/08/03 03:40:03;;;;;;;5.33;4.92;;;;;;;18.35;100.00;100017.59;1669903;84;21130;-75
2022/08/03 03:42:31;;;;;;;5.95;5.45;;;;;;;18.42;100.00;100027.14;1670365;84;21035;-77
2022/08/03 03:44:57;;;;;;;5.97;5.53;;;;;;;18.53;100.00;100028.62;1665611;84;20988;-75
2022/08/03 03:47:23;;;;;;;7.72;5.37;;;;;;;18.50;100.00;100028.59;1669378;85;21046;-79
2022/08/03 03:49:50;;;;;;;5.53;4.97;;;;;;;18.48;100.00;100030.19;1669096;85;21674;-79
2022/08/03 03:52:16;;;;;;;5.70;4.58;;;;;;;18.49;100.00;100033.70;1666012;86;21764;-78
2022/08/03 03:54:44;;;;;;;4.80;4.40;;;;;;;18.53;100.00;100038.88;1667188;86;21046;-81
2022/08/03 03:57:11;;;;;;;5.85;4.70;;;;;;;18.57;100.00;100034.64;1669903;84;21023;-76
2022/08/03 03:59:41;;;;;;;7.30;5.30;;;;;;;18.58;100.00;100050.30;1672563;84;21035;-80
2022/08/03 04:02:09;;;;;;;8.15;5.20;;;;;;;18.61;100.00;100043.03;1669727;84;21063;-83
2022/08/03 04:13:02;;;;;;;6.37;4.83;;;;;;;18.61;100.00;100037.13;1670963;84;20991;-78
2022/08/03 04:15:32;;;;;;;6.65;4.62;;;;;;;18.61;100.00;100041.68;1672985;84;21055;-79
2022/08/03 04:17:59;;;;;;;4.72;4.42;;;;;;;18.58;100.00;100043.01;1671399;86;21645;-84
2022/08/03 04:20:29;;;;;;;5.65;4.95;;;;;;;18.56;100.00;100042.44;1669794;84;21531;-79
2022/08/03 04:22:59;;;;;;;5.17;4.67;;;;;;;18.56;100.00;100041.63;1669944;84;21082;-80
2022/08/03 04:25:29;;;;;;;5.25;4.90;;;;;;;18.52;100.00;100048.05;1670266;84;21036;-81
2022/08/03 04:28:01;;;;;;;7.55;5.87;;;;;;;18.53;100.00;100048.87;1668387;84;21361;-82
2022/08/03 04:30:29;;;;;;;5.60;4.87;;;;;;;18.60;100.00;100050.32;1665495;84;21015;-73
2022/08/03 04:32:56;;;;;;;5.53;4.53;;;;;;;18.64;100.00;100056.85;1665122;84;21974;-71
2022/08/03 04:35:28;;;;;;;5.80;5.05;;;;;;;18.62;100.00;100052.78;1667548;84;21087;-71
2022/08/03 04:37:56;;;;;;;8.23;4.62;;;;;;;18.66;100.00;100056.61;1669813;84;20972;-74
2022/08/03 04:40:35;;;;;;;4.35;4.15;;;;;;;18.70;100.00;100044.24;1669139;84;21003;-75
2022/08/03 04:43:05;;;;;;;5.15;4.55;;;;;;;18.73;100.00;100047.80;1667116;86;21010;-75
2022/08/03 04:45:35;;;;;;;5.60;5.20;;;;;;;18.78;100.00;100046.53;1669675;84;21670;-77
2022/08/03 04:48:04;;;;;;;5.25;4.85;;;;;;;18.81;100.00;100056.84;1671895;84;21039;-75
2022/08/03 04:50:33;;;;;;;4.53;4.22;;;;;;;18.82;100.00;100061.19;1667647;84;21562;-75
2022/08/03 04:53:06;;;;;;;4.95;4.47;;;;;;;18.84;100.00;100058.25;1661515;86;21103;-77
2022/08/03 04:55:34;;;;;;;5.45;4.60;;;;;;;18.82;100.00;100058.48;1668231;84;21110;-75
2022/08/03 04:58:03;;;;;;;5.78;5.15;;;;;;;18.80;100.00;100059.27;1670730;84;21139;-74
2022/08/03 05:00:29;;;;;;;6.10;5.65;;;;;;;18.79;100.00;100053.55;1671080;84;21019;-74
2022/08/03 05:02:56;;;;;;;5.25;4.90;;;;;;;18.85;100.00;100051.77;1670806;84;21156;-79
2022/08/03 05:05:22;;;;;;;5.22;4.95;;;;;;;18.93;100.00;100054.05;1664764;84;21009;-77
2022/08/03 05:07:49;;;;;;;5.67;5.17;;;;;;;19.04;100.00;100054.46;1665214;84;21051;-76
2022/08/03 05:10:16;;;;;;;4.83;4.53;;;;;;;19.14;99.92;100054.30;1671124;84;22631;-80
2022/08/03 05:12:46;;;;;;;5.78;5.33;;;;;;;19.17;99.02;100057.83;1670645;84;21066;-79
2022/08/03 05:15:14;;;;;;;4.67;4.47;;;;;;;19.19;99.68;100053.83;1668768;84;21118;-78
2022/08/03 05:17:40;;;;;;;6.10;5.55;;;;;;;19.25;99.12;100058.76;1678102;84;21039;-75
2022/08/03 05:20:09;;;;;;;5.55;5.25;;;;;;;19.26;99.08;100053.08;1668866;84;21119;-73
2022/08/03 05:22:36;;;;;;;4.97;4.55;;;;;;;19.29;98.71;100061.75;1669120;84;21052;-72
2022/08/03 05:25:03;;;;;;;5.70;5.28;;;;;;;19.24;98.85;100063.33;1663251;84;21067;-72
2022/08/03 05:27:29;;;;;;;12.03;5.92;;;;;;;19.21;98.85;100070.61;1664852;84;21012;-76
2022/08/03 05:29:56;;;;;;;6.72;6.17;;;;;;;19.21;99.23;100070.61;1672565;84;21059;-76
2022/08/03 05:32:22;;;;;;;7.95;6.30;;;;;;;19.23;98.72;100077.08;1672951;84;21511;-75
2022/08/03 05:34:51;;;;;;;;;;;;;;;19.24;98.62;100072.78;1646242;84;20964;-71
2022/08/03 05:37:17;;;;;;;5.75;5.45;;;;;;;19.27;99.10;100071.48;1647286;85;20135;-79
2022/08/03 05:39:44;;;;;;;9.80;5.58;;;;;;;19.28;99.25;100074.98;1643791;87;21107;-69
2022/08/03 05:42:10;;;;;;;;;;;;;;;19.30;98.86;100072.84;1622105;86;21020;-68
2022/08/03 05:44:37;;;;;;;11.45;10.45;;;;;;;19.34;99.06;100074.78;1650851;85;20399;-70
2022/08/03 05:47:05;;;;;;;6.28;5.20;;;;;;;19.37;99.25;100072.13;1684612;84;22279;-71
2022/08/03 05:49:31;;;;;;;5.78;4.60;;;;;;;19.47;99.29;100069.52;1681423;84;22512;-70
2022/08/03 05:51:57;;;;;;;;;;;;;;;19.60;98.98;100063.72;1651388;85;21082;-69
2022/08/03 05:54:23;;;;;;;6.50;5.95;;;;;;;19.73;98.83;100060.37;1649103;85;20146;-71
2022/08/03 05:56:49;;;;;;;;;;;;;;;19.76;97.90;100059.32;1650310;84;21505;-72
2022/08/03 06:02:24;;;;;;;7.35;5.28;;;;;;;19.90;96.35;100074.58;1726548;79;23466;-88
2022/08/03 06:04:50;;;;;;;6.70;5.80;;;;;;;19.87;95.89;100084.55;1697414;83;21502;-83
2022/08/03 06:07:16;;;;;;;6.53;5.45;;;;;;;19.93;95.88;100082.20;1693751;83;21061;-82
2022/08/03 06:09:42;;;;;;;5.53;5.03;;;;;;;20.18;95.10;100082.95;1686853;83;21502;-81
2022/08/03 06:12:09;;;;;;;6.95;6.25;;;;;;;20.48;95.52;100077.48;1698813;83;21052;-82
2022/08/03 06:14:35;;;;;;;6.50;5.40;;;;;;;20.96;91.94;100077.52;1681486;83;21002;-81
2022/08/03 06:17:01;;;;;;;5.70;4.65;;;;;;;21.45;87.64;100069.05;1679604;83;21046;-81
2022/08/03 06:19:27;;;;;;;5.55;5.05;;;;;;;21.83;87.55;100075.64;1695399;83;21026;-82
2022/08/03 06:21:53;;;;;;;5.00;4.60;;;;;;;22.14;83.57;100063.72;1692217;83;21096;-82
2022/08/03 06:24:20;;;;;;;5.40;5.10;;;;;;;22.29;81.30;100081.93;1722613;82;21462;-79
2022/08/03 06:26:46;;;;;;;5.40;4.75;;;;;;;22.27;80.88;100075.16;1700662;82;21047;-79
2022/08/03 06:29:12;;;;;;;9.28;5.20;;;;;;;22.40;82.14;100071.08;1702885;82;21011;-80
2022/08/03 06:31:38;;;;;;;10.20;5.33;;;;;;;22.72;79.55;100066.11;1712380;82;21547;-81
2022/08/03 06:34:05;;;;;;;6.62;4.15;;;;;;;22.99;78.31;100065.48;1695781;83;21044;-79
2022/08/03 06:36:32;;;;;;;3.83;3.58;;;;;;;23.31;78.50;100063.19;1716123;82;21090;-76
2022/08/03 06:39:00;;;;;;;5.72;3.70;;;;;;;23.87;74.84;100065.34;1715038;82;21033;-77
2022/08/03 06:41:27;;;;;;;5.10;4.00;;;;;;;24.23;73.66;100056.88;1716703;82;20962;-81
2022/08/03 06:43:54;;;;;;;4.85;3.65;;;;;;;24.36;73.47;100060.28;1712315;82;21038;-69
2022/08/03 06:46:21;;;;;;;4.40;3.80;;;;;;;24.48;72.05;100062.62;1688131;83;21002;-74
2022/08/03 06:48:47;;;;;;;4.60;4.00;;;;;;;24.56;71.89;100062.01;1699340;84;21569;-83
2022/08/03 06:51:14;;;;;;;4.58;4.17;;;;;;;24.65;70.28;100063.00;1683954;84;21585;-80
2022/08/03 06:53:40;;;;;;;7.28;3.55;;;;;;;24.72;70.97;100065.96;1692272;84;21567;-82
2022/08/03 06:56:07;;;;;;;4.60;4.30;;;;;;;24.82;70.40;100067.19;1697053;83;21104;-79
2022/08/03 06:58:34;;;;;;;5.37;4.12;;;;;;;24.98;68.57;100059.11;1699272;83;21510;-79
2022/08/03 07:01:00;;;;;;;4.62;4.25;;;;;;;25.09;67.87;100067.98;1690210;83;21088;-78
2022/08/03 07:03:27;;;;;;;3.83;3.52;;;;;;;25.10;67.28;100066.86;1671060;85;21039;-70
2022/08/03 07:05:54;;;;;;;6.03;3.52;;;;;;;25.08;69.07;100062.81;1676186;84;21446;-78
2022/08/03 07:08:21;;;;;;;4.80;3.22;;;;;;;25.23;68.15;100064.00;1673349;84;21017;-81
2022/08/03 07:10:47;;;;;;;7.83;3.90;;;;;;;25.17;67.75;100063.79;1675484;84;21184;-81
2022/08/03 07:13:13;;;;;;;4.37;3.08;;;;;;;25.06;68.70;100067.19;1669882;85;21042;-82
2022/08/03 07:15:39;;;;;;;3.83;3.52;;;;;;;25.07;68.24;100070.16;1666608;84;21060;-78
2022/08/03 07:18:06;;;;;;;4.67;3.80;;;;;;;24.99;68.91;100066.16;1688371;84;21073;-80
2022/08/03 07:20:32;;;;;;;3.70;3.00;;;;;;;24.93;69.33;100060.52;1650353;86;21049;-81
2022/08/03 07:22:58;;;;;;;4.58;3.72;;;;;;;25.00;69.18;100065.64;1645978;85;21092;-85
2022/08/03 07:25:24;;;;;;;4.85;3.45;;;;;;;24.90;69.92;100063.82;1647036;86;21071;-79
2022/08/03 07:27:51;;;;;;;5.30;4.65;;;;;;;24.96;70.56;100065.93;1659200;85;21178;-81
2022/08/03 07:30:17;;;;;;;8.48;3.98;;;;;;;25.01;70.25;100069.41;1664534;85;21086;-83
2022/08/03 07:32:45;;;;;;;3.22;3.00;;;;;;;24.97;70.05;100067.56;1655547;85;21053;-83
2022/08/03 07:35:11;;;;;;;6.20;3.80;;;;;;;24.85;70.11;100073.44;1654297;84;21026;-82
2022/08/03 07:37:38;;;;;;;5.20;4.20;;;;;;;24.78;70.15;100078.42;1661977;85;21066;-78
2022/08/03 07:40:06;;;;;;;6.15;3.50;;;;;;;24.74;70.55;100085.00;1666313;85;21038;-81
2022/08/03 07:42:33;;;;;;;5.15;3.83;;;;;;;24.68;71.52;100076.62;1646489;85;21108;-81
2022/08/03 07:45:00;;;;;;;7.97;3.05;;;;;;;24.63;71.69;100084.84;1667978;85;21013;-81
2022/08/03 07:47:30;;;;;;;6.75;3.87;;;;;;;24.66;71.74;100087.00;1657072;84;21023;-81
2022/08/03 07:49:58;;;;;;;5.22;3.58;;;;;;;24.71;71.77;100091.57;1661286;85;21029;-83
2022/08/03 07:55:10;;;;;;;4.87;3.42;;;;;;;24.61;72.01;100095.22;1671121;84;21093;-86
2022/08/03 07:57:36;;;;;;;3.83;3.62;;;;;;;24.57;72.25;100094.98;1675194;84;21122;-70
2022/08/03 08:00:10;;;;;;;4.37;3.87;;;;;;;24.57;72.66;100093.63;1677666;84;21018;-85
2022/08/03 08:02:40;;;;;;;4.78;4.25;;;;;;;24.56;73.06;100090.62;1651379;84;21046;-80
2022/08/03 08:05:10;;;;;;;3.45;3.22;;;;;;;24.56;72.83;100093.90;1658353;86;21049;-80
2022/08/03 08:07:37;;;;;;;4.35;3.90;;;;;;;24.56;73.17;100102.88;1657107;85;21015;-80
2022/08/03 08:10:07;;;;;;;4.58;3.95;;;;;;;24.62;72.94;100107.20;1662868;84;21036;-77
2022/08/03 08:12:33;;;;;;;3.75;3.45;;;;;;;24.64;72.81;100101.47;1691065;82;21014;-78
2022/08/03 08:15:02;;;;;;;4.05;3.62;;;;;;;24.58;71.81;100104.80;1680922;83;21063;-79
2022/08/03 08:17:28;;;;;;;3.67;3.47;;;;;;;24.54;71.80;100110.53;1672686;83;21029;-80
2022/08/03 08:19:55;;;;;;;4.97;4.58;;;;;;;24.51;72.75;100109.73;1672820;83;21009;-78
2022/08/03 08:22:22;;;;;;;4.90;4.37;;;;;;;24.52;72.71;100103.20;1664183;83;21021;-79
2022/08/03 08:24:49;;;;;;;3.87;3.67;;;;;;;24.58;72.08;100111.61;1655794;83;21030;-78
2022/08/03 08:27:15;;;;;;;5.45;4.97;;;;;;;24.65;71.84;100110.70;1669837;83;21055;-81
2022/08/03 08:29:41;;;;;;;8.15;6.35;;;;;;;24.76;71.53;100120.14;1672692;83;21043;-78
2022/08/03 08:32:07;;;;;;;5.47;5.08;;;;;;;24.77;71.58;100114.41;1686071;83;21134;-78
2022/08/03 08:34:35;;;;;;;4.83;4.45;;;;;;;24.81;70.61;100114.65;1663646;83;21066;-80
2022/08/03 08:37:03;;;;;;;5.05;4.05;;;;;;;24.79;71.18;100107.28;1652543;85;21046;-77
2022/08/03 08:39:30;;;;;;;5.33;4.80;;;;;;;24.76;70.78;100106.52;1651724;85;21137;-79
2022/08/03 08:41:56;;;;;;;4.45;4.15;;;;;;;24.74;71.40;100109.52;1620879;85;21466;-79
2022/08/03 08:44:22;;;;;;;7.40;4.65;;;;;;;24.74;71.15;100115.53;1655314;82;21279;-74
2022/08/03 08:46:49;;;;;;;4.12;3.72;;;;;;;24.66;71.69;100117.78;1691956;82;21008;-75
2022/08/03 08:49:20;;;;;;;6.85;4.75;;;;;;;24.54;72.29;100116.53;1696832;82;21461;-78
2022/08/03 08:51:48;;;;;;;4.85;4.37;;;;;;;24.45;72.91;100113.61;1697822;82;21036;-76
2022/08/03 08:54:19;;;;;;;10.93;4.78;;;;;;;24.42;72.94;100116.89;1697083;82;20990;-81
2022/08/03 08:56:51;;;;;;;4.67;4.28;;;;;;;24.38;72.78;100128.10;1697774;81;21092;-79
2022/08/03 08:59:22;;;;;;;4.55;4.25;;;;;;;24.39;72.49;100126.46;1697595;83;21463;-78
2022/08/03 09:01:48;;;;;;;5.20;4.30;;;;;;;24.35;73.28;100118.57;1695400;83;21094;-78
2022/08/03 09:04:15;;;;;;;6.03;4.37;;;;;;;24.31;73.66;100119.44;1698624;83;21055;-79
2022/08/03 09:06:41;;;;;;;6.78;5.03;;;;;;;24.32;73.79;100121.89;1704880;83;21561;-79
2022/08/03 09:09:07;;;;;;;4.85;4.35;;;;;;;24.37;73.85;100125.10;1677536;83;21043;-80
2022/08/03 09:11:35;;;;;;;6.05;3.87;;;;;;;24.29;73.86;100100.09;1666449;83;21023;-79
2022/08/03 09:14:01;;;;;;;4.55;4.25;;;;;;;24.43;73.83;100115.78;1683897;84;21031;-79
2022/08/03 09:16:27;;;;;;;7.08;4.62;;;;;;;24.31;74.82;100117.52;1671961;84;21057;-79
2022/08/03 09:18:54;;;;;;;4.50;4.20;;;;;;;24.21;74.99;100110.81;1684830;84;21054;-78
2022/08/03 09:21:28;;;;;;;5.47;3.77;;;;;;;24.15;75.05;100108.67;1677775;84;21011;-79
2022/08/03 09:23:56;;;;;;;5.70;4.12;;;;;;;24.17;75.54;100104.31;1658383;84;21037;-78
2022/08/03 09:26:30;;;;;;;4.75;4.47;;;;;;;24.18;76.77;100104.00;1675282;84;21089;-78
2022/08/03 09:29:10;;;;;;;6.87;4.87;;;;;;;24.19;77.39;100109.73;1671900;84;21065;-79
2022/08/03 09:31:40;;;;;;;8.48;6.05;;;;;;;24.19;76.85;100115.73;1661961;84;21030;-81
2022/08/03 09:34:10;;;;;;;4.37;3.98;;;;;;;24.21;77.72;100114.34;1681958;83;21054;-80
2022/08/03 09:36:41;;;;;;;4.97;4.58;;;;;;;24.25;77.06;100121.39;1675115;83;21152;-79
2022/08/03 09:39:15;;;;;;;4.03;3.70;;;;;;;24.27;76.86;100120.00;1682497;83;21096;-78
2022/08/03 09:41:46;;;;;;;4.28;3.98;;;;;;;24.31;77.09;100122.16;1690422;83;21054;-79
2022/08/03 09:44:15;;;;;;;5.85;5.35;;;;;;;24.34;77.31;100119.69;1687933;83;21011;-78
2022/08/03 09:46:50;;;;;;;5.30;4.78;;;;;;;24.39;76.59;100121.54;1661547;85;21075;-80
2022/08/03 09:49:16;;;;;;;4.87;4.55;;;;;;;24.42;76.53;100123.70;1668172;85;21171;-79
2022/08/03 09:51:44;;;;;;;3.50;3.17;;;;;;;24.42;76.47;100119.62;1660260;85;21019;-82
2022/08/03 09:54:10;;;;;;;3.45;3.12;;;;;;;24.38;76.81;100123.45;1656401;85;21114;-77
2022/08/03 09:56:46;;;;;;;5.22;4.83;;;;;;;24.35;77.28;100129.47;1651907;85;21070;-79
2022/08/03 09:59:17;;;;;;;4.50;4.17;;;;;;;24.34;76.31;100128.42;1647906;86;21069;-81
2022/08/03 10:01:43;;;;;;;7.85;6.00;;;;;;;24.36;76.83;100129.74;1629518;85;21095;-84
2022/08/03 10:04:15;;;;;;;4.55;3.90;;;;;;;24.34;77.24;100130.58;1662036;85;21010;-81
2022/08/03 10:07:07;;;;;;;10.03;4.50;;;;;;;24.34;77.40;100135.23;1628386;86;21043;-82
2022/08/03 10:09:36;;;;;;;4.25;3.95;;;;;;;24.28;77.59;100136.63;1656220;85;21064;-80
2022/08/03 10:12:12;;;;;;;6.60;6.00;;;;;;;24.25;77.50;100133.09;1655920;84;21018;-81
2022/08/03 10:14:40;;;;;;;;;;;;;;;24.21;77.81;100123.88;1662271;85;21143;-83
2022/08/03 10:17:08;;;;;;;6.85;6.37;;;;;;;24.26;77.82;100127.92;1659818;85;20116;-81
2022/08/03 10:19:35;;;;;;;4.85;4.55;;;;;;;24.29;77.91;100125.97;1659911;85;21022;-80
2022/08/03 10:22:09;;;;;;;5.58;4.30;;;;;;;24.41;77.12;100134.33;1661426;86;21134;-81
2022/08/03 10:24:39;;;;;;;4.67;4.37;;;;;;;24.45;77.34;100129.39;1655135;85;21084;-82
2022/08/03 10:27:07;;;;;;;5.28;3.90;;;;;;;24.53;76.99;100126.62;1633348;86;21023;-80
2022/08/03 10:29:42;;;;;;;4.90;4.50;;;;;;;24.61;76.72;100121.91;1662142;85;21045;-79
2022/08/03 10:32:16;;;;;;;3.67;3.35;;;;;;;24.70;76.41;100119.94;1664439;85;20967;-83
2022/08/03 10:34:44;;;;;;;6.30;4.62;;;;;;;24.80;76.71;100123.35;1623801;84;21053;-78
2022/08/03 10:37:12;;;;;;;4.78;4.37;;;;;;;24.95;75.60;100119.66;1678796;83;21080;-82
2022/08/03 10:39:52;;;;;;;4.35;4.05;;;;;;;25.05;74.33;100109.17;1678290;83;21018;-74
2022/08/03 10:42:10;;;;;;;4.30;4.20;;;;;;;25.09;73.51;100106.16;1680027;83;21498;-79
2022/08/03 10:44:40;;;;;;;7.22;4.15;;;;;;;25.13;73.44;100104.99;1682466;84;21112;-82
2022/08/03 10:47:08;;;;;;;4.10;3.80;;;;;;;25.22;73.33;100112.80;1620703;84;21074;-82
2022/08/03 10:49:35;;;;;;;4.20;3.87;;;;;;;25.32;70.34;100097.71;1678453;84;21490;-80
2022/08/03 10:52:04;;;;;;;4.40;4.12;;;;;;;25.42;70.67;100098.13;1682409;84;21050;-84
2022/08/03 10:57:48;;;;;;;3.42;3.12;;;;;;;25.42;67.92;100104.38;1699035;82;21062;-87
2022/08/03 11:00:20;;;;;;;3.90;3.60;;;;;;;25.38;65.28;100108.81;1707006;82;21007;-81
2022/08/03 11:03:13;;;;;;;4.33;3.80;;;;;;;25.32;65.91;100100.44;1702826;83;21066;-80
2022/08/03 11:05:43;;;;;;;4.30;3.90;;;;;;;25.26;66.14;100098.89;1702286;83;21622;-80
2022/08/03 11:08:35;;;;;;;3.92;3.67;;;;;;;25.23;65.70;100100.27;1702592;83;21035;-78
2022/08/03 11:11:27;;;;;;;3.85;3.55;;;;;;;25.30;65.22;100091.73;1696356;83;20987;-82
2022/08/03 11:14:19;;;;;;;3.37;3.17;;;;;;;25.43;67.86;100091.02;1693958;84;21087;-80
2022/08/03 11:16:52;;;;;;;3.27;3.08;;;;;;;25.42;69.55;100085.28;1696933;83;21043;-79
2022/08/03 11:19:23;;;;;;;3.90;3.70;;;;;;;25.35;70.34;100086.20;1695936;84;21495;-80
2022/08/03 11:21:53;;;;;;;3.65;3.30;;;;;;;25.29;70.40;100083.28;1694058;84;21581;-78
2022/08/03 11:24:46;;;;;;;5.25;3.67;;;;;;;25.24;71.49;100088.80;1697379;83;20991;-78
2022/08/03 11:27:21;;;;;;;4.05;3.60;;;;;;;25.22;72.26;100084.16;1703844;84;21491;-77
2022/08/03 11:30:09;;;;;;;4.80;4.37;;;;;;;25.17;72.39;100080.95;1703556;83;21097;-80
2022/08/03 11:32:42;;;;;;;3.40;3.10;;;;;;;25.17;70.90;100073.33;1700550;83;21109;-81
2022/08/03 11:35:26;;;;;;;4.22;3.92;;;;;;;25.17;70.86;100078.23;1687790;83;21542;-77
2022/08/03 11:38:06;;;;;;;4.58;4.10;;;;;;;25.17;71.47;100080.16;1688268;83;21492;-78
2022/08/03 11:40:50;;;;;;;4.15;3.65;;;;;;;25.23;71.39;100076.28;1681254;83;21011;-79
2022/08/03 11:43:36;;;;;;;7.53;3.70;;;;;;;25.34;68.97;100071.51;1650735;85;21034;-79
2022/08/03 11:46:16;;;;;;;3.77;3.47;;;;;;;25.42;69.24;100067.55;1669060;84;21594;-79
2022/08/03 11:48:46;;;;;;;4.60;4.08;;;;;;;25.45;67.93;100062.88;1657759;85;21071;-85
2022/08/03 11:51:29;;;;;;;3.37;3.17;;;;;;;25.33;66.48;100052.94;1671104;85;21026;-82
2022/08/03 11:54:01;;;;;;;5.33;3.25;;;;;;;25.33;66.93;100057.59;1667726;85;21083;-78
2022/08/03 11:56:32;;;;;;;4.60;3.65;;;;;;;25.36;67.62;100044.19;1710092;81;20979;-81